Terminal Aerodrome Forecast
Issued by NWS Billings, MT

Home | Current Version | Previous Version | Text Only | Print | Product List | Glossary On
Versions: 1 2 3 4 5 6 7 8 9 10 11 12 13 14 15 16 17 18 19 20 21 22 23 24 25 26 27 28 29
184
FTUS45 KBYZ 111731
TAFBIL
TAF
KBIL 111731Z 1118/1218 31019G28KT P6SM FEW060 BKN250
     FM120000 34011KT P6SM BKN200
     FM120300 VRB06KT P6SM BKN120
     FM120500 04006KT P6SM BKN100
     FM121200 08007KT P6SM VCSH FEW025 BKN040=

USA.gov is the U.S. government's official web portal to all federal, state and local government web resources and services.